Time;durP1;ratioP1;P1;durP2;ratioP2;P2;SDS_P1;SDS_P2;PMS_P1;PMS_P2;Temp;Humidity;BMP_temperature;BMP_pressure;BME280_temperature;BME280_humidity;BME280_pressure;Samples;Min_cycle;Max_cycle;Signal;HPM_P1;HPM_P2
2021/06/28 00:02:01;;;;;;;5.37;4.28;;;;;;;29.41;40.54;99681.69;4482736;32;33883;-71
2021/06/28 00:04:38;;;;;;;7.07;3.97;;;;;;;29.41;40.72;99680.87;4482233;32;33627;-73
2021/06/28 00:07:06;;;;;;;7.20;4.22;;;;;;;29.41;40.75;99686.38;4483047;32;33051;-74
2021/06/28 00:09:34;;;;;;;5.57;3.80;;;;;;;29.39;40.75;99686.66;4482410;32;34658;-67
2021/06/28 00:12:02;;;;;;;8.63;4.12;;;;;;;29.40;40.58;99677.28;4484631;32;34536;-74
2021/06/28 00:14:29;;;;;;;5.78;4.07;;;;;;;29.39;40.63;99677.56;4484603;32;33789;-74
2021/06/28 00:16:57;;;;;;;9.77;3.92;;;;;;;29.39;40.64;99675.66;4484697;32;32836;-74
2021/06/28 00:19:25;;;;;;;6.30;3.75;;;;;;;29.39;40.70;99672.91;4484300;32;35288;-74
2021/06/28 00:21:52;;;;;;;6.35;4.53;;;;;;;29.40;40.57;99673.72;4484696;32;33589;-74
2021/06/28 00:24:20;;;;;;;5.47;3.83;;;;;;;29.39;40.64;99678.41;4484560;32;33826;-74
2021/06/28 00:26:47;;;;;;;7.75;4.22;;;;;;;29.37;40.36;99666.84;4484323;32;34837;-74
2021/06/28 00:29:15;;;;;;;5.03;3.87;;;;;;;29.38;40.61;99673.19;4484412;32;33585;-74
2021/06/28 00:31:43;;;;;;;7.62;4.03;;;;;;;29.37;40.68;99672.34;4484671;32;33943;-70
2021/06/28 00:34:10;;;;;;;5.55;4.03;;;;;;;29.38;40.52;99674.00;4484493;32;34684;-71
2021/06/28 00:36:38;;;;;;;6.30;3.78;;;;;;;29.38;40.63;99673.19;4483043;32;34449;-75
2021/06/28 00:39:06;;;;;;;5.18;3.50;;;;;;;29.38;40.67;99675.94;4484535;32;33845;-70
2021/06/28 00:41:33;;;;;;;6.97;4.00;;;;;;;29.37;40.66;99675.06;4483931;32;33546;-74
2021/06/28 00:44:01;;;;;;;6.82;4.00;;;;;;;29.38;40.44;99681.44;4484367;32;33830;-72
2021/06/28 00:46:29;;;;;;;6.05;4.10;;;;;;;29.37;40.57;99674.25;4484408;32;33534;-72
2021/06/28 00:48:56;;;;;;;7.05;4.15;;;;;;;29.36;40.65;99678.09;4484279;32;33813;-71
2021/06/28 00:51:24;;;;;;;7.57;3.90;;;;;;;29.35;40.71;99681.97;4484374;32;33960;-73
2021/06/28 00:53:52;;;;;;;9.55;4.50;;;;;;;29.35;40.72;99679.22;4482916;32;33128;-73
2021/06/28 00:56:19;;;;;;;6.00;4.00;;;;;;;29.36;40.62;99678.09;4457313;32;33311;-74
2021/06/28 00:58:48;;;;;;;7.22;3.85;;;;;;;29.36;40.52;99683.59;4484232;32;34846;-74
2021/06/28 01:01:16;;;;;;;5.10;3.85;;;;;;;29.35;40.63;99676.47;4483124;32;34682;-72
2021/06/28 01:03:44;;;;;;;5.95;3.92;;;;;;;29.37;40.65;99677.00;4483903;32;34671;-71
2021/06/28 01:06:13;;;;;;;7.18;4.30;;;;;;;29.34;40.65;99674.81;4484362;32;34087;-74
2021/06/28 01:08:41;;;;;;;5.53;3.90;;;;;;;29.36;40.66;99675.34;4484226;32;34736;-72
2021/06/28 01:11:09;;;;;;;7.00;4.45;;;;;;;29.35;40.68;99680.03;4482749;32;33725;-67
2021/06/28 01:13:39;;;;;;;6.82;4.28;;;;;;;29.33;40.70;99668.50;4484191;32;33851;-74
2021/06/28 01:16:07;;;;;;;7.65;4.05;;;;;;;29.34;40.72;99670.12;4484003;32;33263;-72
2021/06/28 01:18:35;;;;;;;7.45;4.15;;;;;;;29.34;40.71;99672.06;4484129;31;33953;-75
2021/06/28 01:21:03;;;;;;;7.62;4.32;;;;;;;29.34;40.66;99664.66;4469571;32;33820;-72
2021/06/28 01:23:32;;;;;;;5.78;4.00;;;;;;;29.34;40.44;99663.81;4482818;32;33843;-68
2021/06/28 01:26:07;;;;;;;6.47;4.25;;;;;;;29.33;40.38;99667.63;4482957;32;33309;-75
2021/06/28 01:28:36;;;;;;;5.70;4.10;;;;;;;29.33;40.45;99662.16;4483864;32;34397;-73
2021/06/28 01:31:05;;;;;;;6.15;4.00;;;;;;;29.32;40.59;99668.75;4483847;32;33845;-72
2021/06/28 01:33:33;;;;;;;6.28;3.95;;;;;;;29.30;40.66;99663.53;4467034;32;33539;-71
2021/06/28 01:36:01;;;;;;;6.20;4.43;;;;;;;29.31;40.60;99670.66;4482009;32;33266;-71
2021/06/28 01:38:29;;;;;;;5.93;4.35;;;;;;;29.32;40.56;99663.25;4482432;32;34654;-72
2021/06/28 01:40:56;;;;;;;6.07;4.30;;;;;;;29.30;40.30;99669.03;4482826;32;33618;-71
2021/06/28 01:43:24;;;;;;;6.60;4.47;;;;;;;29.31;40.23;99672.59;4483914;32;33767;-70
2021/06/28 01:45:52;;;;;;;8.45;4.30;;;;;;;29.30;40.45;99669.03;4484212;32;33145;-72
2021/06/28 01:48:20;;;;;;;5.57;3.97;;;;;;;29.31;40.57;99675.34;4483771;32;35380;-70
2021/06/28 01:50:49;;;;;;;10.05;5.05;;;;;;;29.30;40.61;99671.78;4483643;32;34830;-71
2021/06/28 01:53:17;;;;;;;5.37;4.03;;;;;;;29.31;40.41;99670.66;4484166;32;34404;-70
2021/06/28 01:55:44;;;;;;;5.50;4.28;;;;;;;29.29;40.60;99667.38;4482530;32;33400;-72
2021/06/28 01:58:13;;;;;;;5.43;4.37;;;;;;;29.31;40.63;99675.34;4483857;32;33885;-72
2021/06/28 02:00:46;;;;;;;5.62;4.05;;;;;;;29.30;40.66;99674.53;4475281;32;33963;-71
2021/06/28 02:03:16;;;;;;;5.78;4.28;;;;;;;29.30;40.32;99680.00;4483860;32;33892;-72
2021/06/28 02:05:46;;;;;;;6.62;4.70;;;;;;;29.30;40.51;99673.69;4483680;32;34859;-71
2021/06/28 02:08:15;;;;;;;5.70;4.00;;;;;;;29.30;40.59;99663.53;4483693;32;34938;-72
2021/06/28 02:10:50;;;;;;;5.80;4.35;;;;;;;29.30;40.58;99668.19;4483557;32;33936;-71
2021/06/28 02:13:19;;;;;;;6.15;4.68;;;;;;;29.31;40.38;99675.34;4483730;32;33660;-72
2021/06/28 02:15:47;;;;;;;7.00;3.97;;;;;;;29.29;40.54;99670.12;4484020;32;33815;-72
2021/06/28 02:18:15;;;;;;;6.40;4.05;;;;;;;29.31;40.54;99678.09;4483545;32;33894;-72
2021/06/28 02:20:42;;;;;;;6.10;4.53;;;;;;;29.30;40.57;99679.19;4483484;31;34652;-72
2021/06/28 02:23:22;;;;;;;6.12;4.12;;;;;;;29.28;40.57;99682.19;4483235;32;34210;-72
2021/06/28 02:25:54;;;;;;;7.05;4.37;;;;;;;29.30;40.56;99688.25;4483143;32;34540;-70
2021/06/28 02:28:23;;;;;;;6.07;4.57;;;;;;;29.28;40.23;99679.44;4482245;32;33463;-72
2021/06/28 02:30:51;;;;;;;;;;;;;;;29.28;40.50;99678.63;4483430;32;33570;-73
2021/06/28 02:33:19;;;;;;;5.95;4.18;;;;;;;29.41;40.28;99686.38;4482235;32;34207;-72
2021/06/28 02:35:47;;;;;;;6.95;4.35;;;;;;;29.30;40.42;99682.75;4483788;32;33521;-71
2021/06/28 02:38:15;;;;;;;5.57;3.95;;;;;;;29.27;40.40;99686.03;4483113;32;33745;-71
2021/06/28 02:40:43;;;;;;;6.00;4.43;;;;;;;29.26;40.50;99678.06;4482240;32;33803;-73
2021/06/28 02:43:31;;;;;;;5.10;4.07;;;;;;;29.25;40.53;99684.66;4460425;31;34720;-72
2021/06/28 02:45:59;;;;;;;5.53;4.47;;;;;;;29.27;40.50;99682.47;4483434;32;33005;-72
2021/06/28 02:48:27;;;;;;;6.37;4.50;;;;;;;29.25;40.57;99680.00;4483306;32;34521;-72
2021/06/28 02:50:54;;;;;;;7.45;4.18;;;;;;;29.25;40.61;99680.00;4483016;32;33562;-73
2021/06/28 02:53:22;;;;;;;6.47;4.85;;;;;;;29.25;40.55;99679.19;4483311;32;33773;-71
2021/06/28 02:55:50;;;;;;;6.18;4.47;;;;;;;29.25;40.52;99680.00;4480397;32;34253;-74
2021/06/28 02:58:21;;;;;;;10.20;4.00;;;;;;;29.25;40.56;99681.91;4481508;32;34332;-74
2021/06/28 03:00:49;;;;;;;5.78;4.00;;;;;;;29.23;40.52;99683.00;4481886;32;33866;-73
2021/06/28 03:03:30;;;;;;;7.97;4.43;;;;;;;29.83;39.68;99677.16;4524564;31;86091;-73
2021/06/28 03:06:13;;;;;;;6.37;4.30;;;;;;;29.48;40.11;99682.28;4526275;31;29727;-71
2021/06/28 03:08:55;;;;;;;7.78;4.22;;;;;;;29.84;39.61;99679.63;4525059;31;76260;-73
2021/06/28 03:11:36;;;;;;;9.13;4.68;;;;;;;29.48;40.00;99684.22;4525157;31;79466;-72
2021/06/28 03:14:18;;;;;;;10.63;4.62;;;;;;;29.32;40.28;99683.31;4525088;31;80514;-74
2021/06/28 03:16:58;;;;;;;7.32;4.30;;;;;;;29.82;39.55;99689.28;4525075;31;79295;-73
2021/06/28 03:19:41;;;;;;;6.43;4.50;;;;;;;29.46;40.03;99686.38;4515809;31;74173;-73
2021/06/28 03:22:24;;;;;;;7.78;4.18;;;;;;;29.81;39.70;99690.38;4525163;31;80148;-74
2021/06/28 03:25:06;;;;;;;6.43;4.45;;;;;;;29.81;39.67;99690.38;4525013;31;81770;-74
2021/06/28 03:27:47;;;;;;;6.35;4.50;;;;;;;29.46;40.08;99694.63;4525050;31;79542;-73
2021/06/28 03:30:30;;;;;;;7.87;4.30;;;;;;;29.79;39.77;99690.63;4525222;31;76580;-73
2021/06/28 03:33:13;;;;;;;6.55;4.68;;;;;;;29.44;40.19;99697.66;4525028;31;76375;-73
2021/06/28 03:35:55;;;;;;;7.62;4.45;;;;;;;29.78;39.79;99686.22;4525047;31;80088;-73
2021/06/28 03:38:38;;;;;;;8.40;4.62;;;;;;;29.79;39.71;99689.81;4525092;31;79982;-72
2021/06/28 03:41:19;;;;;;;7.95;4.87;;;;;;;29.45;40.17;99690.22;4525335;31;79828;-73
2021/06/28 03:44:04;;;;;;;8.20;4.32;;;;;;;29.75;39.61;99689.50;4525040;31;81446;-74
2021/06/28 03:46:46;;;;;;;6.55;4.65;;;;;;;29.41;40.09;99691.88;4525193;31;77698;-73
2021/06/28 03:49:28;;;;;;;8.45;4.68;;;;;;;29.78;39.71;99701.91;4525262;31;74242;-72
2021/06/28 03:52:11;;;;;;;8.55;4.60;;;;;;;29.41;40.18;99700.12;4509945;31;76953;-72
2021/06/28 03:54:53;;;;;;;6.22;3.90;;;;;;;29.76;39.52;99706.88;4525210;31;77553;-73
2021/06/28 03:57:36;;;;;;;6.20;4.40;;;;;;;29.76;39.69;99704.94;4525091;31;82055;-73
2021/06/28 04:00:19;;;;;;;9.32;4.60;;;;;;;29.41;40.13;99702.84;4525171;31;76672;-74
2021/06/28 04:03:02;;;;;;;9.27;4.70;;;;;;;29.77;39.75;99705.75;4525007;31;81135;-73
2021/06/28 04:05:44;;;;;;;6.95;4.62;;;;;;;29.77;39.67;99703.00;4523682;31;121387;-72
2021/06/28 04:08:26;;;;;;;5.50;4.25;;;;;;;29.77;39.67;99705.75;4525260;31;75759;-73
2021/06/28 04:11:07;;;;;;;7.30;4.90;;;;;;;29.77;39.69;99698.34;4525069;31;77384;-74
2021/06/28 04:13:49;;;;;;;6.37;4.55;;;;;;;29.40;40.14;99702.03;4525279;31;75555;-73
2021/06/28 04:16:30;;;;;;;6.65;4.32;;;;;;;29.76;39.76;99709.63;4525202;31;79356;-72
2021/06/28 04:19:13;;;;;;;6.35;4.18;;;;;;;29.40;40.18;99701.22;4513881;31;83674;-73
2021/06/28 04:21:53;;;;;;;5.80;4.32;;;;;;;29.75;39.79;99703.25;4525336;31;76548;-73
2021/06/28 04:24:34;;;;;;;8.68;4.90;;;;;;;29.74;39.80;99699.69;4525102;31;77674;-74
2021/06/28 04:27:17;;;;;;;7.68;4.62;;;;;;;29.40;40.25;99703.97;4525265;31;75029;-72
2021/06/28 04:30:00;;;;;;;6.18;4.00;;;;;;;29.74;39.84;99700.41;4524894;31;79507;-69
2021/06/28 04:32:41;;;;;;;8.88;4.53;;;;;;;29.76;39.90;99704.13;4525085;31;86259;-73
2021/06/28 04:35:24;;;;;;;7.57;4.57;;;;;;;29.38;40.33;99698.75;4525227;31;79543;-72
2021/06/28 04:38:07;;;;;;;12.05;4.57;;;;;;;29.73;39.84;99713.31;4525275;31;75560;-73
2021/06/28 04:40:49;;;;;;;6.87;4.35;;;;;;;29.75;39.83;99708.75;4525401;31;77797;-72
2021/06/28 04:43:31;;;;;;;5.62;4.53;;;;;;;29.76;39.71;99720.63;4525018;31;77467;-72
2021/06/28 04:46:14;;;;;;;6.35;4.78;;;;;;;29.76;39.74;99715.12;4525140;31;80901;-74
2021/06/28 04:48:56;;;;;;;10.55;4.70;;;;;;;29.78;39.67;99715.66;4525035;31;78739;-73
2021/06/28 04:51:39;;;;;;;7.68;4.70;;;;;;;29.76;39.72;99715.12;4524890;31;86687;-71
2021/06/28 04:54:19;;;;;;;7.82;4.20;;;;;;;29.40;40.17;99720.47;4525433;31;76369;-65
2021/06/28 04:57:00;;;;;;;11.10;5.20;;;;;;;29.73;40.03;99722.78;4524992;31;79413;-72
2021/06/28 04:59:42;;;;;;;13.30;4.65;;;;;;;29.76;40.00;99724.19;4525201;31;76436;-66
2021/06/28 05:02:23;;;;;;;9.65;4.95;;;;;;;29.39;40.43;99714.13;4525301;31;79889;-72
2021/06/28 05:05:04;;;;;;;9.18;5.22;;;;;;;29.76;40.00;99723.38;4525127;31;83217;-71
2021/06/28 05:07:46;;;;;;;11.23;4.62;;;;;;;29.76;39.92;99723.38;4523350;31;127537;-69
2021/06/28 05:10:29;;;;;;;6.62;4.72;;;;;;;29.77;39.95;99722.25;4524912;31;82104;-69
2021/06/28 05:13:09;;;;;;;7.85;4.55;;;;;;;29.76;40.00;99717.88;4525199;31;75589;-73
2021/06/28 05:15:50;;;;;;;7.30;4.32;;;;;;;29.41;40.41;99716.59;4525311;31;72146;-71
2021/06/28 05:18:33;;;;;;;9.05;4.78;;;;;;;29.75;39.95;99719.75;4513488;31;78421;-73
2021/06/28 05:21:13;;;;;;;6.72;4.72;;;;;;;29.40;40.43;99715.78;4525218;31;74261;-72
2021/06/28 05:23:56;;;;;;;7.53;4.12;;;;;;;29.74;39.95;99712.63;4525289;31;74786;-73
2021/06/28 05:26:37;;;;;;;7.22;4.40;;;;;;;29.76;39.95;99704.94;4525033;31;77422;-74
2021/06/28 05:29:17;;;;;;;6.95;4.32;;;;;;;29.77;39.89;99716.75;4525306;31;78783;-73
2021/06/28 05:31:59;;;;;;;8.45;4.50;;;;;;;29.78;39.93;99718.41;4524897;31;83224;-73
2021/06/28 05:34:40;;;;;;;7.12;4.35;;;;;;;29.78;39.89;99715.66;4525263;31;78307;-73
2021/06/28 05:37:23;;;;;;;6.28;4.57;;;;;;;29.77;39.97;99714.84;4524963;31;76426;-70
2021/06/28 05:40:06;;;;;;;6.40;4.50;;;;;;;29.76;39.94;99721.44;4524959;31;82558;-73
2021/06/28 05:42:47;;;;;;;8.77;4.53;;;;;;;29.42;40.36;99710.81;4525007;31;81620;-73
2021/06/28 05:45:29;;;;;;;7.30;4.45;;;;;;;29.76;40.04;99726.13;4516007;31;77984;-72
2021/06/28 05:48:09;;;;;;;9.32;4.68;;;;;;;29.78;40.01;99727.50;4524879;31;84006;-63
2021/06/28 05:50:50;;;;;;;14.18;5.32;;;;;;;29.79;40.06;99737.38;4517597;31;77980;-66
2021/06/28 05:53:32;;;;;;;17.62;4.97;;;;;;;29.43;40.56;99726.25;4511491;31;83855;-73
2021/06/28 05:56:16;;;;;;;11.23;5.30;;;;;;;29.33;41.28;99730.84;4522994;31;89792;-71
2021/06/28 05:58:56;;;;;;;14.95;5.10;;;;;;;29.71;40.37;99729.69;4522559;31;78225;-74
2021/06/28 06:01:37;;;;;;;12.70;5.10;;;;;;;29.80;40.17;99735.47;4523913;31;80501;-74
2021/06/28 06:04:20;;;;;;;15.70;4.72;;;;;;;29.45;40.65;99732.28;4525286;31;76350;-72
2021/06/28 06:07:02;;;;;;;9.90;4.47;;;;;;;29.83;40.07;99745.94;4524952;31;82561;-75
2021/06/28 06:09:45;;;;;;;13.27;4.78;;;;;;;29.48;40.56;99750.19;4519694;31;212584;-74
2021/06/28 06:12:27;;;;;;;10.23;4.90;;;;;;;29.83;40.08;99752.25;4522819;31;82897;-74
2021/06/28 06:15:08;;;;;;;10.52;4.65;;;;;;;29.82;40.05;99752.53;4522551;31;79058;-71
2021/06/28 06:17:48;;;;;;;9.77;4.80;;;;;;;29.48;40.52;99751.00;4511382;31;81466;-73
2021/06/28 06:20:32;;;;;;;11.50;4.68;;;;;;;29.81;40.10;99757.22;4522680;31;79500;-73
2021/06/28 06:23:14;;;;;;;13.68;5.37;;;;;;;29.81;40.12;99761.88;4523205;31;81467;-74
2021/06/28 06:25:56;;;;;;;12.60;4.90;;;;;;;29.81;40.19;99754.47;4526204;31;29704;-73
2021/06/28 06:28:37;;;;;;;15.07;5.10;;;;;;;29.81;40.16;99756.38;4525049;31;80971;-74
2021/06/28 06:31:18;;;;;;;8.43;4.80;;;;;;;29.45;40.66;99751.53;4515658;31;76571;-72
2021/06/28 06:33:58;;;;;;;11.68;4.72;;;;;;;29.79;40.26;99750.31;4507976;31;80932;-72
2021/06/28 06:36:40;;;;;;;11.90;4.45;;;;;;;29.78;40.21;99751.28;4526612;31;26954;-70
2021/06/28 06:39:21;;;;;;;11.30;5.25;;;;;;;29.79;40.18;99750.31;4525035;31;78049;-73
2021/06/28 06:42:04;;;;;;;12.98;4.47;;;;;;;29.79;40.25;99748.38;4525041;31;78422;-72
2021/06/28 06:44:46;;;;;;;10.55;4.78;;;;;;;29.79;40.23;99753.06;4524932;31;76144;-71
2021/06/28 06:47:27;;;;;;;9.10;4.47;;;;;;;29.79;40.21;99753.06;4525130;31;80623;-72
2021/06/28 06:50:10;;;;;;;14.40;4.50;;;;;;;29.44;40.66;99752.62;4524993;31;81387;-72
2021/06/28 06:52:50;;;;;;;8.68;4.70;;;;;;;29.28;41.10;99752.81;4525418;31;76148;-72
2021/06/28 06:55:34;;;;;;;12.10;4.70;;;;;;;29.77;40.22;99744.28;4525089;31;79038;-71
2021/06/28 06:58:17;;;;;;;10.00;4.68;;;;;;;29.41;40.69;99746.84;4525073;31;78085;-72
2021/06/28 07:00:57;;;;;;;10.88;4.93;;;;;;;29.76;40.15;99750.88;4525215;31;79154;-72
2021/06/28 07:03:38;;;;;;;10.98;4.35;;;;;;;29.78;40.30;99760.50;4525151;31;75074;-72
2021/06/28 07:06:19;;;;;;;13.18;4.78;;;;;;;29.79;40.25;99753.06;4525037;31;87354;-73
2021/06/28 07:09:02;;;;;;;10.80;4.78;;;;;;;29.44;40.72;99752.62;4524949;31;78615;-71
2021/06/28 07:11:44;;;;;;;10.88;5.10;;;;;;;29.29;41.08;99757.25;4523545;31;131341;-71
2021/06/28 07:14:26;;;;;;;8.35;4.28;;;;;;;29.78;40.30;99752.25;4525089;31;78026;-72
2021/06/28 07:17:07;;;;;;;9.60;4.43;;;;;;;29.80;40.22;99751.97;4513110;31;76802;-73
2021/06/28 07:19:50;;;;;;;6.72;3.90;;;;;;;29.44;40.69;99752.62;4525077;31;83237;-72
2021/06/28 07:22:32;;;;;;;8.35;4.40;;;;;;;29.80;40.25;99750.06;4525019;31;86186;-72
2021/06/28 07:25:15;;;;;;;7.10;4.00;;;;;;;29.44;40.71;99744.38;4526326;31;32906;-72
2021/06/28 07:27:56;;;;;;;6.57;3.92;;;;;;;29.82;40.26;99750.59;4524880;31;88174;-72
2021/06/28 07:30:40;;;;;;;7.05;4.20;;;;;;;29.84;40.23;99753.06;4525010;31;80821;-71
2021/06/28 07:33:21;;;;;;;8.07;4.03;;;;;;;29.85;40.19;99752.00;4525006;31;87297;-72
2021/06/28 07:36:01;;;;;;;8.52;4.60;;;;;;;29.86;40.14;99750.91;4525112;31;83443;-73
2021/06/28 07:38:44;;;;;;;8.50;4.45;;;;;;;29.49;40.69;99749.91;4517632;31;83287;-72
2021/06/28 07:41:26;;;;;;;8.35;4.00;;;;;;;29.85;40.23;99755.56;4497763;31;80979;-72
2021/06/28 07:44:09;;;;;;;8.48;4.47;;;;;;;29.50;40.67;99745.22;4525242;31;76223;-72
2021/06/28 07:46:52;;;;;;;8.52;4.32;;;;;;;29.36;41.06;99744.06;4525185;31;76766;-72
2021/06/28 07:49:34;;;;;;;9.35;3.95;;;;;;;29.86;40.24;99750.91;4524972;31;82554;-71
2021/06/28 07:52:15;;;;;;;6.37;4.25;;;;;;;29.86;40.25;99751.72;4521320;31;82313;-71
2021/06/28 07:54:56;;;;;;;7.20;3.80;;;;;;;29.88;40.16;99752.25;4509020;31;32892;-72
2021/06/28 07:57:38;;;;;;;8.32;4.30;;;;;;;29.52;40.69;99748.56;4517882;31;93431;-72
2021/06/28 08:00:21;;;;;;;8.95;4.40;;;;;;;29.37;41.08;99746.53;4517668;31;78654;-72
2021/06/28 08:03:05;;;;;;;7.75;4.18;;;;;;;29.87;40.34;99758.03;4525010;31;78952;-72
2021/06/28 08:05:46;;;;;;;8.63;4.22;;;;;;;29.90;40.23;99766.59;4525049;31;76400;-70
2021/06/28 08:08:27;;;;;;;9.52;4.25;;;;;;;29.91;40.21;99761.91;4525506;31;76523;-71
2021/06/28 08:11:10;;;;;;;6.97;4.30;;;;;;;29.90;40.23;99758.34;4525250;31;76004;-71
2021/06/28 08:13:51;;;;;;;7.45;4.10;;;;;;;29.89;40.22;99759.44;4523681;31;128356;-70
2021/06/28 08:16:33;;;;;;;9.40;4.45;;;;;;;29.92;40.22;99769.06;4511753;31;81587;-71
2021/06/28 08:19:13;;;;;;;8.85;4.03;;;;;;;29.56;40.66;99757.09;4524970;31;81712;-71
2021/06/28 08:21:56;;;;;;;9.82;4.10;;;;;;;29.89;40.28;99753.94;4493947;31;1083632;-72
2021/06/28 08:24:36;;;;;;;7.87;3.87;;;;;;;29.91;40.21;99759.16;4524804;31;79870;-72
2021/06/28 08:27:19;;;;;;;9.57;3.80;;;;;;;29.91;40.25;99757.22;4525121;31;77513;-70
2021/06/28 08:30:00;;;;;;;7.12;3.95;;;;;;;29.91;40.26;99759.16;4525111;31;77451;-72
2021/06/28 08:32:41;;;;;;;7.30;3.95;;;;;;;29.92;40.22;99763.56;4525052;31;85594;-72
2021/06/28 08:35:22;;;;;;;6.85;4.20;;;;;;;29.93;40.26;99762.44;4525425;31;80759;-71
2021/06/28 08:38:05;;;;;;;7.45;4.12;;;;;;;29.93;40.40;99762.44;4516514;31;79749;-73
2021/06/28 08:40:45;;;;;;;7.62;3.78;;;;;;;29.56;40.81;99755.19;4524953;31;83767;-76
2021/06/28 08:43:27;;;;;;;8.38;4.12;;;;;;;29.91;40.31;99753.66;4525138;31;81820;-71
2021/06/28 08:46:06;;;;;;;8.75;3.58;;;;;;;29.56;40.79;99751.59;4521730;31;76928;-74
2021/06/28 08:48:47;;;;;;;12.37;3.70;;;;;;;29.91;40.31;99753.66;4524865;31;83008;-72
2021/06/28 08:51:28;;;;;;;7.75;3.95;;;;;;;29.92;40.29;99758.88;4521665;31;80050;-72
2021/06/28 08:54:14;;;;;;;12.20;4.78;;;;;;;29.92;40.37;99764.37;4479703;31;780795;-71
2021/06/28 08:56:57;;;;;;;8.40;4.18;;;;;;;29.57;40.86;99764.28;4525268;31;79882;-71
2021/06/28 08:59:41;;;;;;;8.65;3.85;;;;;;;29.44;41.21;99762.81;4525283;31;75974;-68
2021/06/28 09:02:23;;;;;;;11.45;4.28;;;;;;;29.96;40.56;99764.66;4525149;31;79671;-72
2021/06/28 09:05:05;;;;;;;13.02;4.80;;;;;;;29.94;40.77;99761.38;4523922;31;81459;-71
2021/06/28 09:07:45;;;;;;;11.68;4.62;;;;;;;29.95;40.80;99767.75;4522128;31;84157;-69
2021/06/28 09:10:42;;;;;;;13.50;5.10;;;;;;;29.56;41.38;99768.91;4525007;31;82732;-71
2021/06/28 09:13:38;;;;;;;22.17;5.55;;;;;;;29.47;41.68;99776.00;4501972;31;777440;-70
2021/06/28 09:16:22;;;;;;;74.00;8.20;;;;;;;29.47;41.77;99765.84;4523795;31;121003;-71
2021/06/28 09:19:07;;;;;;;69.72;8.48;;;;;;;29.47;41.99;99762.25;4534734;31;724194;-71
2021/06/28 09:21:50;;;;;;;41.13;7.53;;;;;;;29.95;41.19;99771.28;4525097;31;81621;-72
2021/06/28 09:24:37;;;;;;;38.53;7.55;;;;;;;29.59;41.66;99760.16;4525095;31;79031;-72
2021/06/28 09:27:22;;;;;;;33.60;6.43;;;;;;;29.98;41.15;99767.97;4524746;31;91054;-70
2021/06/28 09:30:19;;;;;;;28.33;6.78;;;;;;;30.01;41.08;99767.44;4524989;31;81280;-72
2021/06/28 09:32:59;;;;;;;33.88;6.20;;;;;;;30.01;41.05;99761.09;4525021;31;82137;-70
2021/06/28 09:35:42;;;;;;;30.27;6.95;;;;;;;29.99;40.97;99759.47;4525067;31;78182;-70
2021/06/28 09:38:29;;;;;;;28.70;6.07;;;;;;;30.01;40.93;99766.59;4525092;31;73927;-72
2021/06/28 09:41:21;;;;;;;35.38;6.32;;;;;;;30.01;40.91;99770.19;4502839;31;779520;-71
2021/06/28 09:44:06;;;;;;;24.65;5.60;;;;;;;29.99;40.93;99751.22;4525360;31;77259;-71
2021/06/28 09:47:10;;;;;;;30.08;5.85;;;;;;;30.03;40.85;99762.50;4502605;31;781618;-71
2021/06/28 09:50:03;;;;;;;29.83;5.68;;;;;;;30.02;40.82;99749.81;4493853;31;1085802;-72
2021/06/28 09:52:49;;;;;;;24.58;6.25;;;;;;;30.02;40.88;99751.75;4525174;31;82640;-72
2021/06/28 09:55:37;;;;;;;23.98;5.85;;;;;;;30.01;40.82;99744.59;4525216;31;79772;-70
2021/06/28 09:58:22;;;;;;;27.80;6.70;;;;;;;30.02;40.80;99743.50;4502924;31;778295;-73
2021/06/28 10:01:04;;;;;;;29.37;5.93;;;;;;;30.01;40.79;99737.16;4502973;31;778973;-72
2021/06/28 10:03:45;;;;;;;24.50;5.95;;;;;;;29.66;41.25;99735.16;4525001;31;85447;-73
2021/06/28 10:06:29;;;;;;;24.73;6.20;;;;;;;30.02;40.88;99738.81;4525209;31;77529;-73
2021/06/28 10:09:10;;;;;;;22.30;5.93;;;;;;;29.65;41.38;99731.56;4526818;31;28961;-71
2021/06/28 10:11:53;;;;;;;28.87;6.15;;;;;;;30.01;40.89;99726.16;4525093;31;78654;-73
2021/06/28 10:14:38;;;;;;;20.27;5.47;;;;;;;30.01;40.87;99719.84;4523962;31;721931;-74
2021/06/28 10:17:19;;;;;;;18.87;5.37;;;;;;;29.65;41.34;99726.06;4523949;31;121055;-74
2021/06/28 10:20:02;;;;;;;15.77;5.53;;;;;;;30.02;40.82;99715.97;4525009;31;81959;-73
2021/06/28 10:22:44;;;;;;;18.17;5.22;;;;;;;29.64;41.26;99724.41;4526246;31;38540;-73
2021/06/28 10:25:25;;;;;;;16.40;5.43;;;;;;;30.00;40.97;99721.78;4513010;31;75486;-73
2021/06/28 10:28:06;;;;;;;21.33;5.70;;;;;;;29.67;41.41;99726.63;4524937;31;87728;-71
2021/06/28 10:30:46;;;;;;;26.00;5.65;;;;;;;29.58;42.05;99721.94;4525509;31;77998;-71
2021/06/28 10:33:26;;;;;;;27.02;5.70;;;;;;;30.25;41.44;99721.00;4526625;31;29383;-67
2021/06/28 10:36:09;;;;;;;31.98;6.57;;;;;;;29.91;42.01;99717.91;4476826;31;1618586;-76
2021/06/28 10:38:50;;;;;;;29.27;6.28;;;;;;;30.32;41.49;99716.06;4525235;31;81508;-73
2021/06/28 10:41:46;;;;;;;29.48;5.95;;;;;;;29.97;41.99;99725.06;4524903;31;81624;-74
2021/06/28 10:44:45;;;;;;;25.48;5.57;;;;;;;30.39;41.44;99719.34;4525130;31;81375;-74
2021/06/28 10:47:28;;;;;;;24.25;5.80;;;;;;;30.36;41.43;99717.16;4525219;31;78575;-74
2021/06/28 10:50:09;;;;;;;22.35;5.78;;;;;;;30.01;41.92;99720.66;4525253;31;77766;-72
2021/06/28 10:52:52;;;;;;;23.02;6.30;;;;;;;30.36;41.44;99710.84;4524801;31;89967;-75
2021/06/28 10:55:39;;;;;;;28.65;6.60;;;;;;;30.36;41.44;99710.84;4507275;31;34071;-75
2021/06/28 10:58:28;;;;;;;21.95;5.50;;;;;;;29.77;42.31;99703.00;4510717;31;34554;-74
2021/06/28 11:01:17;;;;;;;31.42;5.95;;;;;;;29.74;42.38;99715.38;4511825;31;34349;-75
2021/06/28 11:04:07;;;;;;;24.93;5.33;;;;;;;29.74;42.34;99702.44;4497925;31;34435;-75
2021/06/28 11:06:53;;;;;;;27.30;6.45;;;;;;;29.73;42.35;99698.03;4494632;31;33708;-74
2021/06/28 11:09:41;;;;;;;27.17;6.68;;;;;;;29.71;42.37;99696.69;4495852;32;34708;-75
2021/06/28 11:12:32;;;;;;;24.70;6.78;;;;;;;29.70;42.37;99701.34;4495658;31;34743;-74
2021/06/28 11:15:19;;;;;;;21.40;6.10;;;;;;;29.68;42.35;99681.53;4479879;32;34285;-75
2021/06/28 11:18:05;;;;;;;17.33;5.37;;;;;;;29.67;42.32;99684.56;4479886;32;34105;-73
2021/06/28 11:20:54;;;;;;;19.80;5.72;;;;;;;29.66;42.32;99688.44;4479989;32;34687;-74
2021/06/28 11:23:57;;;;;;;22.02;5.12;;;;;;;29.64;42.33;99688.66;4479834;32;35462;-73
2021/06/28 11:26:32;;;;;;;23.92;5.70;;;;;;;29.67;42.22;99687.31;4492890;32;33725;-69
2021/06/28 11:29:47;;;;;;;16.27;4.55;;;;;;;30.24;41.22;99687.16;4523752;31;124834;-71
2021/06/28 11:32:30;;;;;;;22.17;5.68;;;;;;;29.86;41.82;99682.13;4524892;31;88375;-73
2021/06/28 11:34:58;;;;;;;18.30;5.53;;;;;;;29.62;42.14;99671.63;4511746;31;33792;-72
2021/06/28 11:37:28;;;;;;;18.40;4.93;;;;;;;29.61;42.08;99681.00;4510622;31;34396;-75
2021/06/28 11:39:57;;;;;;;16.55;4.87;;;;;;;29.60;42.16;99675.75;4510574;31;33451;-75
2021/06/28 11:42:38;;;;;;;22.27;4.80;;;;;;;29.69;42.11;99674.13;4526231;31;30127;-72
2021/06/28 11:45:18;;;;;;;18.60;4.75;;;;;;;30.19;41.10;99667.88;4525275;31;75553;-73
2021/06/28 11:48:00;;;;;;;17.30;4.93;;;;;;;30.19;41.05;99676.13;4525205;31;79897;-70
2021/06/28 11:50:42;;;;;;;29.17;5.68;;;;;;;29.85;41.50;99670.31;4525145;31;78946;-66
2021/06/28 11:53:22;;;;;;;21.55;6.00;;;;;;;30.21;41.27;99671.16;4524719;31;93050;-72
2021/06/28 11:56:18;;;;;;;25.33;5.28;;;;;;;29.87;41.71;99673.59;4525164;31;82317;-77
2021/06/28 11:59:06;;;;;;;25.05;5.60;;;;;;;30.18;41.48;99668.16;4525011;31;83828;-75
2021/06/28 12:01:48;;;;;;;28.35;6.45;;;;;;;30.20;41.46;99658.53;4525195;31;76482;-68
2021/06/28 12:04:33;;;;;;;54.03;8.25;;;;;;;30.22;41.61;99647.25;4525072;31;84442;-77
2021/06/28 12:07:15;;;;;;;58.72;8.95;;;;;;;30.23;41.66;99651.66;4525096;31;83253;-72
2021/06/28 12:09:58;;;;;;;81.05;10.13;;;;;;;29.88;42.11;99650.50;4524861;31;82524;-67
2021/06/28 12:12:40;;;;;;;57.67;9.73;;;;;;;29.73;42.67;99647.72;4520638;31;98945;-75
2021/06/28 12:15:25;;;;;;;62.13;9.25;;;;;;;30.22;42.06;99656.34;4525105;31;85521;-75
2021/06/28 12:18:06;;;;;;;60.88;8.77;;;;;;;30.25;41.99;99646.69;4525170;31;82711;-77
2021/06/28 12:20:55;;;;;;;53.45;9.82;;;;;;;30.29;41.90;99647.78;4525160;31;86239;-75
2021/06/28 12:23:37;;;;;;;43.90;7.85;;;;;;;30.27;41.92;99641.75;4525073;31;80865;-75
2021/06/28 12:26:20;;;;;;;56.88;8.20;;;;;;;30.29;41.97;99647.78;4526443;31;30258;-73